sensor_id;sensor_type;location;lat;lon;timestamp;temperature;humidity
14893;DHT22;7538;53.626;9.906;2024-03-29T00:01:46;9.10;98.10
14893;DHT22;7538;53.626;9.906;2024-03-29T00:04:12;9.20;98.50
14893;DHT22;7538;53.626;9.906;2024-03-29T00:06:37;9.10;99.00
14893;DHT22;7538;53.626;9.906;2024-03-29T00:09:03;9.10;98.10
14893;DHT22;7538;53.626;9.906;2024-03-29T00:11:29;9.00;98.50
14893;DHT22;7538;53.626;9.906;2024-03-29T00:13:55;9.00;98.30
14893;DHT22;7538;53.626;9.906;2024-03-29T00:16:21;9.00;97.90
14893;DHT22;7538;53.626;9.906;2024-03-29T00:18:48;8.30;97.40
14893;DHT22;7538;53.626;9.906;2024-03-29T00:21:14;8.90;98.20
14893;DHT22;7538;53.626;9.906;2024-03-29T00:23:40;8.90;98.40
14893;DHT22;7538;53.626;9.906;2024-03-29T00:26:06;8.90;98.40
14893;DHT22;7538;53.626;9.906;2024-03-29T00:28:32;8.80;99.90
14893;DHT22;7538;53.626;9.906;2024-03-29T00:30:58;8.80;99.90
14893;DHT22;7538;53.626;9.906;2024-03-29T00:33:24;8.80;99.40
14893;DHT22;7538;53.626;9.906;2024-03-29T00:35:51;8.70;99.30
14893;DHT22;7538;53.626;9.906;2024-03-29T00:38:17;8.70;99.50
14893;DHT22;7538;53.626;9.906;2024-03-29T00:40:43;8.70;99.70
14893;DHT22;7538;53.626;9.906;2024-03-29T00:43:08;8.70;99.40
14893;DHT22;7538;53.626;9.906;2024-03-29T00:45:34;8.70;99.60
14893;DHT22;7538;53.626;9.906;2024-03-29T00:48:00;9.00;99.80
14893;DHT22;7538;53.626;9.906;2024-03-29T00:50:26;8.60;99.90
14893;DHT22;7538;53.626;9.906;2024-03-29T00:52:53;8.50;99.90
14893;DHT22;7538;53.626;9.906;2024-03-29T00:55:19;8.40;99.90
14893;DHT22;7538;53.626;9.906;2024-03-29T00:57:45;8.40;99.90
14893;DHT22;7538;53.626;9.906;2024-03-29T01:00:11;8.50;99.90
14893;DHT22;7538;53.626;9.906;2024-03-29T01:02:37;8.40;99.90
14893;DHT22;7538;53.626;9.906;2024-03-29T01:05:04;8.40;99.90
14893;DHT22;7538;53.626;9.906;2024-03-29T01:07:30;8.30;99.90
14893;DHT22;7538;53.626;9.906;2024-03-29T01:09:57;8.40;99.90
14893;DHT22;7538;53.626;9.906;2024-03-29T01:12:23;8.40;99.90
14893;DHT22;7538;53.626;9.906;2024-03-29T01:14:49;8.50;99.90
14893;DHT22;7538;53.626;9.906;2024-03-29T01:17:14;8.40;99.90
14893;DHT22;7538;53.626;9.906;2024-03-29T01:19:40;8.40;99.90
14893;DHT22;7538;53.626;9.906;2024-03-29T01:22:06;8.40;99.90
14893;DHT22;7538;53.626;9.906;2024-03-29T01:24:32;8.40;99.90
14893;DHT22;7538;53.626;9.906;2024-03-29T01:26:59;8.40;99.90
14893;DHT22;7538;53.626;9.906;2024-03-29T01:29:25;8.40;99.90
14893;DHT22;7538;53.626;9.906;2024-03-29T01:31:51;8.30;99.90
14893;DHT22;7538;53.626;9.906;2024-03-29T01:34:17;8.30;99.90
14893;DHT22;7538;53.626;9.906;2024-03-29T01:36:43;8.30;99.90
14893;DHT22;7538;53.626;9.906;2024-03-29T01:39:10;8.30;99.90
14893;DHT22;7538;53.626;9.906;2024-03-29T01:41:36;8.30;99.70
14893;DHT22;7538;53.626;9.906;2024-03-29T01:44:04;8.30;99.90
14893;DHT22;7538;53.626;9.906;2024-03-29T01:46:31;8.30;99.90
14893;DHT22;7538;53.626;9.906;2024-03-29T01:49:02;8.20;99.70
14893;DHT22;7538;53.626;9.906;2024-03-29T01:51:29;8.20;99.90
14893;DHT22;7538;53.626;9.906;2024-03-29T01:53:56;8.20;99.90
14893;DHT22;7538;53.626;9.906;2024-03-29T01:56:23;8.20;99.90
14893;DHT22;7538;53.626;9.906;2024-03-29T01:58:52;8.10;99.90
14893;DHT22;7538;53.626;9.906;2024-03-29T02:01:21;8.10;99.90
14893;DHT22;7538;53.626;9.906;2024-03-29T02:03:48;8.10;99.90
14893;DHT22;7538;53.626;9.906;2024-03-29T02:06:18;8.10;99.90
14893;DHT22;7538;53.626;9.906;2024-03-29T02:08:44;8.20;99.90
14893;DHT22;7538;53.626;9.906;2024-03-29T02:11:12;8.20;99.90
14893;DHT22;7538;53.626;9.906;2024-03-29T02:13:39;8.20;99.60
14893;DHT22;7538;53.626;9.906;2024-03-29T02:16:06;8.20;99.40
14893;DHT22;7538;53.626;9.906;2024-03-29T02:18:34;8.20;99.40
14893;DHT22;7538;53.626;9.906;2024-03-29T02:21:01;8.20;99.00
14893;DHT22;7538;53.626;9.906;2024-03-29T02:23:29;8.20;98.30
14893;DHT22;7538;53.626;9.906;2024-03-29T02:25:58;8.20;98.10
14893;DHT22;7538;53.626;9.906;2024-03-29T02:28:26;8.30;97.50
14893;DHT22;7538;53.626;9.906;2024-03-29T02:30:52;8.20;97.30
14893;DHT22;7538;53.626;9.906;2024-03-29T02:33:21;8.20;98.30
14893;DHT22;7538;53.626;9.906;2024-03-29T02:35:47;8.20;97.90
14893;DHT22;7538;53.626;9.906;2024-03-29T02:38:14;8.20;97.90
14893;DHT22;7538;53.626;9.906;2024-03-29T02:40:41;8.20;97.90
14893;DHT22;7538;53.626;9.906;2024-03-29T02:43:09;8.20;97.40
14893;DHT22;7538;53.626;9.906;2024-03-29T02:45:36;8.20;97.10
14893;DHT22;7538;53.626;9.906;2024-03-29T02:48:03;8.20;96.50
14893;DHT22;7538;53.626;9.906;2024-03-29T02:50:29;8.30;96.90
14893;DHT22;7538;53.626;9.906;2024-03-29T02:52:55;8.20;96.70
14893;DHT22;7538;53.626;9.906;2024-03-29T02:55:22;8.20;96.70
14893;DHT22;7538;53.626;9.906;2024-03-29T02:57:48;8.20;96.60
14893;DHT22;7538;53.626;9.906;2024-03-29T03:00:16;8.20;96.40
14893;DHT22;7538;53.626;9.906;2024-03-29T03:02:42;8.20;96.80
14893;DHT22;7538;53.626;9.906;2024-03-29T03:05:09;8.20;97.30
14893;DHT22;7538;53.626;9.906;2024-03-29T03:07:35;8.10;97.80
14893;DHT22;7538;53.626;9.906;2024-03-29T03:10:19;8.00;97.90
14893;DHT22;7538;53.626;9.906;2024-03-29T03:13:04;8.00;98.40
14893;DHT22;7538;53.626;9.906;2024-03-29T03:15:32;8.00;97.60
14893;DHT22;7538;53.626;9.906;2024-03-29T03:17:59;8.10;97.00
14893;DHT22;7538;53.626;9.906;2024-03-29T03:20:25;8.10;96.70
14893;DHT22;7538;53.626;9.906;2024-03-29T03:22:55;8.10;96.40
14893;DHT22;7538;53.626;9.906;2024-03-29T03:25:22;8.10;96.00
14893;DHT22;7538;53.626;9.906;2024-03-29T03:27:48;8.10;96.00
14893;DHT22;7538;53.626;9.906;2024-03-29T03:30:15;8.10;95.40
14893;DHT22;7538;53.626;9.906;2024-03-29T03:32:42;9.30;95.70
14893;DHT22;7538;53.626;9.906;2024-03-29T03:35:09;8.10;94.90
14893;DHT22;7538;53.626;9.906;2024-03-29T03:37:35;8.10;94.80
14893;DHT22;7538;53.626;9.906;2024-03-29T03:40:02;8.10;94.40
14893;DHT22;7538;53.626;9.906;2024-03-29T03:42:29;8.10;95.00
14893;DHT22;7538;53.626;9.906;2024-03-29T03:44:56;8.10;94.90
14893;DHT22;7538;53.626;9.906;2024-03-29T03:47:22;8.10;95.80
14893;DHT22;7538;53.626;9.906;2024-03-29T03:49:50;8.00;95.70
14893;DHT22;7538;53.626;9.906;2024-03-29T03:52:16;8.00;97.20
14893;DHT22;7538;53.626;9.906;2024-03-29T03:54:43;7.90;97.00
14893;DHT22;7538;53.626;9.906;2024-03-29T03:57:09;7.90;98.00
14893;DHT22;7538;53.626;9.906;2024-03-29T03:59:35;7.90;98.70
14893;DHT22;7538;53.626;9.906;2024-03-29T04:02:01;7.90;98.90
14893;DHT22;7538;53.626;9.906;2024-03-29T04:04:28;7.80;98.70
14893;DHT22;7538;53.626;9.906;2024-03-29T04:06:55;7.80;99.50
14893;DHT22;7538;53.626;9.906;2024-03-29T04:09:22;7.80;99.70
14893;DHT22;7538;53.626;9.906;2024-03-29T04:11:48;7.80;99.60
14893;DHT22;7538;53.626;9.906;2024-03-29T04:14:15;7.80;99.00
14893;DHT22;7538;53.626;9.906;2024-03-29T04:16:40;7.70;99.90
14893;DHT22;7538;53.626;9.906;2024-03-29T04:19:07;7.70;99.90
14893;DHT22;7538;53.626;9.906;2024-03-29T04:21:33;7.60;99.90
14893;DHT22;7538;53.626;9.906;2024-03-29T04:24:01;7.70;99.90
14893;DHT22;7538;53.626;9.906;2024-03-29T04:26:27;7.60;99.90
14893;DHT22;7538;53.626;9.906;2024-03-29T04:28:53;7.70;99.90
14893;DHT22;7538;53.626;9.906;2024-03-29T04:31:19;7.60;99.50
14893;DHT22;7538;53.626;9.906;2024-03-29T04:33:46;7.50;99.90
14893;DHT22;7538;53.626;9.906;2024-03-29T04:36:13;7.50;99.90
14893;DHT22;7538;53.626;9.906;2024-03-29T04:38:38;7.60;99.90
14893;DHT22;7538;53.626;9.906;2024-03-29T04:41:06;7.60;99.90
14893;DHT22;7538;53.626;9.906;2024-03-29T04:43:33;7.60;99.90
14893;DHT22;7538;53.626;9.906;2024-03-29T04:46:04;7.70;99.90
14893;DHT22;7538;53.626;9.906;2024-03-29T04:48:34;7.60;99.90
14893;DHT22;7538;53.626;9.906;2024-03-29T04:51:01;7.60;99.90
14893;DHT22;7538;53.626;9.906;2024-03-29T04:53:27;7.60;99.90
14893;DHT22;7538;53.626;9.906;2024-03-29T04:55:54;7.60;99.90
14893;DHT22;7538;53.626;9.906;2024-03-29T04:58:23;7.70;99.90
14893;DHT22;7538;53.626;9.906;2024-03-29T05:00:51;7.70;99.70
14893;DHT22;7538;53.626;9.906;2024-03-29T05:03:19;7.80;99.30
14893;DHT22;7538;53.626;9.906;2024-03-29T05:05:47;7.70;99.40
14893;DHT22;7538;53.626;9.906;2024-03-29T05:08:14;7.80;99.00
14893;DHT22;7538;53.626;9.906;2024-03-29T05:10:41;7.80;98.30
14893;DHT22;7538;53.626;9.906;2024-03-29T05:13:07;7.80;98.00
14893;DHT22;7538;53.626;9.906;2024-03-29T05:15:36;7.90;97.80
14893;DHT22;7538;53.626;9.906;2024-03-29T05:18:03;8.00;96.80
14893;DHT22;7538;53.626;9.906;2024-03-29T05:20:30;7.90;96.30
14893;DHT22;7538;53.626;9.906;2024-03-29T05:22:58;7.90;95.90
14893;DHT22;7538;53.626;9.906;2024-03-29T05:25:24;8.00;96.00
14893;DHT22;7538;53.626;9.906;2024-03-29T05:27:51;7.90;95.30
14893;DHT22;7538;53.626;9.906;2024-03-29T05:30:18;8.00;96.30
14893;DHT22;7538;53.626;9.906;2024-03-29T05:32:47;8.00;95.20
14893;DHT22;7538;53.626;9.906;2024-03-29T05:35:13;8.10;94.70
14893;DHT22;7538;53.626;9.906;2024-03-29T05:37:40;8.10;93.80
14893;DHT22;7538;53.626;9.906;2024-03-29T05:40:08;8.10;94.20
14893;DHT22;7538;53.626;9.906;2024-03-29T05:42:35;8.00;93.80
14893;DHT22;7538;53.626;9.906;2024-03-29T05:45:04;8.10;93.60
14893;DHT22;7538;53.626;9.906;2024-03-29T05:47:32;8.10;91.90
14893;DHT22;7538;53.626;9.906;2024-03-29T05:50:00;8.10;92.90
14893;DHT22;7538;53.626;9.906;2024-03-29T05:52:26;8.70;92.50
14893;DHT22;7538;53.626;9.906;2024-03-29T05:54:53;8.30;90.80
14893;DHT22;7538;53.626;9.906;2024-03-29T05:57:21;8.30;89.90
14893;DHT22;7538;53.626;9.906;2024-03-29T05:59:53;8.30;89.20
14893;DHT22;7538;53.626;9.906;2024-03-29T06:02:20;8.40;89.20
14893;DHT22;7538;53.626;9.906;2024-03-29T06:04:46;8.40;88.10
14893;DHT22;7538;53.626;9.906;2024-03-29T06:07:14;8.50;86.30
14893;DHT22;7538;53.626;9.906;2024-03-29T06:09:41;8.60;85.20
14893;DHT22;7538;53.626;9.906;2024-03-29T06:12:08;8.60;83.10
14893;DHT22;7538;53.626;9.906;2024-03-29T06:14:37;8.70;81.80
14893;DHT22;7538;53.626;9.906;2024-03-29T06:17:21;8.70;81.20
14893;DHT22;7538;53.626;9.906;2024-03-29T06:19:50;8.80;81.00
14893;DHT22;7538;53.626;9.906;2024-03-29T06:22:22;8.90;78.80
14893;DHT22;7538;53.626;9.906;2024-03-29T06:24:49;9.10;78.80
14893;DHT22;7538;53.626;9.906;2024-03-29T06:27:17;9.00;78.90
14893;DHT22;7538;53.626;9.906;2024-03-29T06:29:44;9.00;77.60
14893;DHT22;7538;53.626;9.906;2024-03-29T06:32:11;9.10;76.60
14893;DHT22;7538;53.626;9.906;2024-03-29T06:34:38;9.10;75.40
14893;DHT22;7538;53.626;9.906;2024-03-29T06:37:04;9.10;74.40
14893;DHT22;7538;53.626;9.906;2024-03-29T06:39:32;9.10;73.50
14893;DHT22;7538;53.626;9.906;2024-03-29T06:41:58;9.10;73.80
14893;DHT22;7538;53.626;9.906;2024-03-29T06:44:25;9.10;76.10
14893;DHT22;7538;53.626;9.906;2024-03-29T06:46:52;9.20;72.80
14893;DHT22;7538;53.626;9.906;2024-03-29T06:49:19;9.20;73.00
14893;DHT22;7538;53.626;9.906;2024-03-29T06:51:46;9.10;73.90
14893;DHT22;7538;53.626;9.906;2024-03-29T06:54:14;9.10;74.70
14893;DHT22;7538;53.626;9.906;2024-03-29T06:56:42;9.10;71.10
14893;DHT22;7538;53.626;9.906;2024-03-29T06:59:09;9.30;73.10
14893;DHT22;7538;53.626;9.906;2024-03-29T07:01:35;9.60;72.20
14893;DHT22;7538;53.626;9.906;2024-03-29T07:04:02;9.40;70.10
14893;DHT22;7538;53.626;9.906;2024-03-29T07:06:29;9.40;67.30
14893;DHT22;7538;53.626;9.906;2024-03-29T07:08:56;9.50;66.10
14893;DHT22;7538;53.626;9.906;2024-03-29T07:11:23;9.60;66.50
14893;DHT22;7538;53.626;9.906;2024-03-29T07:13:51;9.70;65.00
14893;DHT22;7538;53.626;9.906;2024-03-29T07:16:17;9.70;63.50
14893;DHT22;7538;53.626;9.906;2024-03-29T07:18:44;9.80;64.20
14893;DHT22;7538;53.626;9.906;2024-03-29T07:21:11;9.80;60.90
14893;DHT22;7538;53.626;9.906;2024-03-29T07:23:38;9.80;61.30
14893;DHT22;7538;53.626;9.906;2024-03-29T07:26:05;10.00;61.00
14893;DHT22;7538;53.626;9.906;2024-03-29T07:28:32;10.10;58.90
14893;DHT22;7538;53.626;9.906;2024-03-29T07:31:05;10.10;56.60
14893;DHT22;7538;53.626;9.906;2024-03-29T07:33:33;10.30;56.10
14893;DHT22;7538;53.626;9.906;2024-03-29T07:35:59;10.30;54.80
14893;DHT22;7538;53.626;9.906;2024-03-29T07:38:26;10.40;52.70
14893;DHT22;7538;53.626;9.906;2024-03-29T07:40:53;10.50;51.50
14893;DHT22;7538;53.626;9.906;2024-03-29T07:43:21;10.50;51.10
14893;DHT22;7538;53.626;9.906;2024-03-29T07:45:48;10.60;51.60
14893;DHT22;7538;53.626;9.906;2024-03-29T07:48:17;10.70;51.50
14893;DHT22;7538;53.626;9.906;2024-03-29T07:50:45;10.70;51.80
14893;DHT22;7538;53.626;9.906;2024-03-29T07:53:12;10.90;50.70
14893;DHT22;7538;53.626;9.906;2024-03-29T07:55:40;9.70;50.70
14893;DHT22;7538;53.626;9.906;2024-03-29T07:58:07;11.00;51.20
14893;DHT22;7538;53.626;9.906;2024-03-29T08:00:38;11.00;50.00
14893;DHT22;7538;53.626;9.906;2024-03-29T08:03:05;11.10;49.60
14893;DHT22;7538;53.626;9.906;2024-03-29T08:05:34;11.10;48.60
14893;DHT22;7538;53.626;9.906;2024-03-29T08:08:00;11.10;49.20
14893;DHT22;7538;53.626;9.906;2024-03-29T08:10:28;11.10;49.80
14893;DHT22;7538;53.626;9.906;2024-03-29T08:12:55;11.80;49.10
14893;DHT22;7538;53.626;9.906;2024-03-29T08:15:22;11.00;49.30
14893;DHT22;7538;53.626;9.906;2024-03-29T08:17:49;11.00;49.90
14893;DHT22;7538;53.626;9.906;2024-03-29T08:20:17;11.00;51.30
14893;DHT22;7538;53.626;9.906;2024-03-29T08:22:45;11.00;52.10
14893;DHT22;7538;53.626;9.906;2024-03-29T08:25:11;11.10;50.90
14893;DHT22;7538;53.626;9.906;2024-03-29T08:27:38;11.10;50.90
14893;DHT22;7538;53.626;9.906;2024-03-29T08:30:06;11.20;50.70
14893;DHT22;7538;53.626;9.906;2024-03-29T08:32:32;11.20;51.10
14893;DHT22;7538;53.626;9.906;2024-03-29T08:34:59;11.20;51.70
14893;DHT22;7538;53.626;9.906;2024-03-29T08:37:26;11.30;51.30
14893;DHT22;7538;53.626;9.906;2024-03-29T08:39:54;11.30;50.70
14893;DHT22;7538;53.626;9.906;2024-03-29T08:42:21;9.60;49.80
14893;DHT22;7538;53.626;9.906;2024-03-29T08:44:48;11.60;50.60
14893;DHT22;7538;53.626;9.906;2024-03-29T08:47:14;11.30;51.10
14893;DHT22;7538;53.626;9.906;2024-03-29T08:49:41;11.40;51.60
14893;DHT22;7538;53.626;9.906;2024-03-29T08:52:08;11.40;51.40
14893;DHT22;7538;53.626;9.906;2024-03-29T08:54:35;11.40;51.00
14893;DHT22;7538;53.626;9.906;2024-03-29T08:57:03;11.50;51.10
14893;DHT22;7538;53.626;9.906;2024-03-29T08:59:30;11.70;49.80
14893;DHT22;7538;53.626;9.906;2024-03-29T09:02:03;11.90;49.30
14893;DHT22;7538;53.626;9.906;2024-03-29T09:04:37;12.30;47.70
14893;DHT22;7538;53.626;9.906;2024-03-29T09:07:04;12.10;47.20
14893;DHT22;7538;53.626;9.906;2024-03-29T09:09:32;12.10;48.10
14893;DHT22;7538;53.626;9.906;2024-03-29T09:11:59;12.20;48.40
14893;DHT22;7538;53.626;9.906;2024-03-29T09:14:27;12.40;48.70
14893;DHT22;7538;53.626;9.906;2024-03-29T09:16:54;12.50;48.20
14893;DHT22;7538;53.626;9.906;2024-03-29T09:19:21;12.60;48.50
14893;DHT22;7538;53.626;9.906;2024-03-29T09:21:49;12.90;48.80
14893;DHT22;7538;53.626;9.906;2024-03-29T09:24:16;13.10;47.20
14893;DHT22;7538;53.626;9.906;2024-03-29T09:26:43;13.10;43.20
14893;DHT22;7538;53.626;9.906;2024-03-29T09:29:10;13.20;43.60
14893;DHT22;7538;53.626;9.906;2024-03-29T09:31:39;13.30;43.40
14893;DHT22;7538;53.626;9.906;2024-03-29T09:34:06;13.00;42.90
14893;DHT22;7538;53.626;9.906;2024-03-29T09:36:34;13.00;44.80
14893;DHT22;7538;53.626;9.906;2024-03-29T09:39:01;14.80;45.40
14893;DHT22;7538;53.626;9.906;2024-03-29T09:41:31;12.90;43.90
14893;DHT22;7538;53.626;9.906;2024-03-29T09:44:02;12.80;44.60
14893;DHT22;7538;53.626;9.906;2024-03-29T09:46:31;12.50;45.80
14893;DHT22;7538;53.626;9.906;2024-03-29T09:49:01;12.20;48.40
14893;DHT22;7538;53.626;9.906;2024-03-29T09:51:29;12.00;52.50
14893;DHT22;7538;53.626;9.906;2024-03-29T09:53:59;11.90;54.70
14893;DHT22;7538;53.626;9.906;2024-03-29T09:56:26;11.70;57.30
14893;DHT22;7538;53.626;9.906;2024-03-29T09:58:53;11.60;61.40
14893;DHT22;7538;53.626;9.906;2024-03-29T10:01:20;11.60;63.70
14893;DHT22;7538;53.626;9.906;2024-03-29T10:03:49;11.50;67.00
14893;DHT22;7538;53.626;9.906;2024-03-29T10:06:18;11.40;70.40
14893;DHT22;7538;53.626;9.906;2024-03-29T10:08:45;11.30;74.10
14893;DHT22;7538;53.626;9.906;2024-03-29T10:11:13;11.20;77.80
14893;DHT22;7538;53.626;9.906;2024-03-29T10:13:42;11.20;80.60
14893;DHT22;7538;53.626;9.906;2024-03-29T10:16:10;11.10;82.80
14893;DHT22;7538;53.626;9.906;2024-03-29T10:18:40;11.20;83.40
14893;DHT22;7538;53.626;9.906;2024-03-29T10:21:09;11.20;83.30
14893;DHT22;7538;53.626;9.906;2024-03-29T10:23:37;11.20;82.70
14893;DHT22;7538;53.626;9.906;2024-03-29T10:26:04;11.20;83.90
14893;DHT22;7538;53.626;9.906;2024-03-29T10:28:32;11.20;84.50
14893;DHT22;7538;53.626;9.906;2024-03-29T10:31:01;11.20;84.60
14893;DHT22;7538;53.626;9.906;2024-03-29T10:33:28;11.40;84.50
14893;DHT22;7538;53.626;9.906;2024-03-29T10:35:56;11.50;83.60
14893;DHT22;7538;53.626;9.906;2024-03-29T10:38:24;11.50;80.90
14893;DHT22;7538;53.626;9.906;2024-03-29T10:40:53;11.60;81.30
14893;DHT22;7538;53.626;9.906;2024-03-29T10:43:20;11.70;79.80
14893;DHT22;7538;53.626;9.906;2024-03-29T10:45:47;11.90;77.70
14893;DHT22;7538;53.626;9.906;2024-03-29T10:48:16;11.90;75.70
14893;DHT22;7538;53.626;9.906;2024-03-29T10:50:44;11.90;74.70
14893;DHT22;7538;53.626;9.906;2024-03-29T10:53:12;11.70;77.10
14893;DHT22;7538;53.626;9.906;2024-03-29T10:55:41;11.70;79.20
14893;DHT22;7538;53.626;9.906;2024-03-29T10:58:11;11.80;78.20
14893;DHT22;7538;53.626;9.906;2024-03-29T11:00:45;11.70;78.40
14893;DHT22;7538;53.626;9.906;2024-03-29T11:03:15;11.60;80.70
14893;DHT22;7538;53.626;9.906;2024-03-29T11:05:46;11.60;84.30
14893;DHT22;7538;53.626;9.906;2024-03-29T11:08:18;11.70;85.70
14893;DHT22;7538;53.626;9.906;2024-03-29T11:10:47;11.80;83.30
14893;DHT22;7538;53.626;9.906;2024-03-29T11:13:23;11.90;82.70
14893;DHT22;7538;53.626;9.906;2024-03-29T11:15:52;11.90;78.90
14893;DHT22;7538;53.626;9.906;2024-03-29T11:18:20;12.00;79.20
14893;DHT22;7538;53.626;9.906;2024-03-29T11:20:50;12.10;78.20
14893;DHT22;7538;53.626;9.906;2024-03-29T11:23:19;12.10;78.10
14893;DHT22;7538;53.626;9.906;2024-03-29T11:25:49;12.30;78.10
14893;DHT22;7538;53.626;9.906;2024-03-29T11:28:25;12.40;75.70
14893;DHT22;7538;53.626;9.906;2024-03-29T11:30:58;12.60;74.40
14893;DHT22;7538;53.626;9.906;2024-03-29T11:33:29;12.70;73.40
14893;DHT22;7538;53.626;9.906;2024-03-29T11:35:56;12.80;68.50
14893;DHT22;7538;53.626;9.906;2024-03-29T11:38:30;12.70;68.10
14893;DHT22;7538;53.626;9.906;2024-03-29T11:41:04;12.60;69.10
14893;DHT22;7538;53.626;9.906;2024-03-29T11:43:34;12.70;71.10
14893;DHT22;7538;53.626;9.906;2024-03-29T11:46:02;12.70;70.40
14893;DHT22;7538;53.626;9.906;2024-03-29T11:48:30;12.80;71.40
14893;DHT22;7538;53.626;9.906;2024-03-29T11:50:58;12.90;73.30
14893;DHT22;7538;53.626;9.906;2024-03-29T11:53:25;13.40;72.30
14893;DHT22;7538;53.626;9.906;2024-03-29T11:55:53;13.10;69.30
14893;DHT22;7538;53.626;9.906;2024-03-29T11:58:21;13.10;69.00
14893;DHT22;7538;53.626;9.906;2024-03-29T12:00:50;13.10;68.60
14893;DHT22;7538;53.626;9.906;2024-03-29T12:03:18;12.90;68.50
14893;DHT22;7538;53.626;9.906;2024-03-29T12:05:46;13.00;69.40
14893;DHT22;7538;53.626;9.906;2024-03-29T12:08:13;13.10;70.40
14893;DHT22;7538;53.626;9.906;2024-03-29T12:10:40;13.20;69.00
14893;DHT22;7538;53.626;9.906;2024-03-29T12:13:08;13.30;67.70
14893;DHT22;7538;53.626;9.906;2024-03-29T12:15:35;13.50;67.60
14893;DHT22;7538;53.626;9.906;2024-03-29T12:18:04;13.70;65.70
14893;DHT22;7538;53.626;9.906;2024-03-29T12:20:31;13.90;63.80
14893;DHT22;7538;53.626;9.906;2024-03-29T12:22:59;14.00;57.90
14893;DHT22;7538;53.626;9.906;2024-03-29T12:25:27;14.10;58.40
14893;DHT22;7538;53.626;9.906;2024-03-29T12:27:54;14.20;57.60
14893;DHT22;7538;53.626;9.906;2024-03-29T12:30:21;12.60;53.50
14893;DHT22;7538;53.626;9.906;2024-03-29T12:32:48;14.50;54.50
14893;DHT22;7538;53.626;9.906;2024-03-29T12:35:27;14.60;54.50
14893;DHT22;7538;53.626;9.906;2024-03-29T12:37:55;14.80;52.30
14893;DHT22;7538;53.626;9.906;2024-03-29T12:40:23;14.90;51.70
14893;DHT22;7538;53.626;9.906;2024-03-29T12:42:51;15.10;49.50
14893;DHT22;7538;53.626;9.906;2024-03-29T12:45:18;15.20;45.80
14893;DHT22;7538;53.626;9.906;2024-03-29T12:47:45;15.40;45.60
14893;DHT22;7538;53.626;9.906;2024-03-29T12:50:13;15.60;44.70
14893;DHT22;7538;53.626;9.906;2024-03-29T12:52:47;15.70;43.20
14893;DHT22;7538;53.626;9.906;2024-03-29T12:55:14;15.90;42.30
14893;DHT22;7538;53.626;9.906;2024-03-29T12:57:43;16.10;40.30
14893;DHT22;7538;53.626;9.906;2024-03-29T13:00:11;16.20;38.00
14893;DHT22;7538;53.626;9.906;2024-03-29T13:02:38;16.30;36.20
14893;DHT22;7538;53.626;9.906;2024-03-29T13:05:05;16.50;36.00
14893;DHT22;7538;53.626;9.906;2024-03-29T13:07:32;16.60;35.90
14893;DHT22;7538;53.626;9.906;2024-03-29T13:10:00;16.70;34.60
14893;DHT22;7538;53.626;9.906;2024-03-29T13:12:28;16.70;33.40
14893;DHT22;7538;53.626;9.906;2024-03-29T13:14:56;16.60;32.40
14893;DHT22;7538;53.626;9.906;2024-03-29T13:17:22;16.50;32.50
14893;DHT22;7538;53.626;9.906;2024-03-29T13:19:49;16.40;32.60
14893;DHT22;7538;53.626;9.906;2024-03-29T13:22:16;16.30;32.00
14893;DHT22;7538;53.626;9.906;2024-03-29T13:24:44;16.20;33.10
14893;DHT22;7538;53.626;9.906;2024-03-29T13:27:12;16.20;32.90
14893;DHT22;7538;53.626;9.906;2024-03-29T13:29:39;16.10;33.30
14893;DHT22;7538;53.626;9.906;2024-03-29T13:32:06;16.10;33.30
14893;DHT22;7538;53.626;9.906;2024-03-29T13:34:33;16.10;32.40
14893;DHT22;7538;53.626;9.906;2024-03-29T13:37:00;16.10;32.90
14893;DHT22;7538;53.626;9.906;2024-03-29T13:39:27;16.20;33.00
14893;DHT22;7538;53.626;9.906;2024-03-29T13:41:54;16.20;32.80
14893;DHT22;7538;53.626;9.906;2024-03-29T13:44:22;16.20;32.80
14893;DHT22;7538;53.626;9.906;2024-03-29T13:46:49;16.20;32.40
14893;DHT22;7538;53.626;9.906;2024-03-29T13:49:17;16.20;31.90
14893;DHT22;7538;53.626;9.906;2024-03-29T13:51:46;16.00;33.00
14893;DHT22;7538;53.626;9.906;2024-03-29T13:54:12;15.90;33.80
14893;DHT22;7538;53.626;9.906;2024-03-29T13:56:39;15.70;34.10
14893;DHT22;7538;53.626;9.906;2024-03-29T13:59:06;15.60;35.50
14893;DHT22;7538;53.626;9.906;2024-03-29T14:01:34;15.30;37.10
14893;DHT22;7538;53.626;9.906;2024-03-29T14:04:01;15.20;37.90
14893;DHT22;7538;53.626;9.906;2024-03-29T14:06:28;15.10;39.60
14893;DHT22;7538;53.626;9.906;2024-03-29T14:08:55;15.00;41.20
14893;DHT22;7538;53.626;9.906;2024-03-29T14:11:22;14.90;42.30
14893;DHT22;7538;53.626;9.906;2024-03-29T14:13:49;14.70;43.70
14893;DHT22;7538;53.626;9.906;2024-03-29T14:16:21;14.70;45.40
14893;DHT22;7538;53.626;9.906;2024-03-29T14:18:49;14.70;46.70
14893;DHT22;7538;53.626;9.906;2024-03-29T14:21:16;14.70;47.00
14893;DHT22;7538;53.626;9.906;2024-03-29T14:23:43;14.70;46.80
14893;DHT22;7538;53.626;9.906;2024-03-29T14:26:10;14.70;47.40
14893;DHT22;7538;53.626;9.906;2024-03-29T14:28:36;14.70;48.40
14893;DHT22;7538;53.626;9.906;2024-03-29T14:31:03;14.60;48.80
14893;DHT22;7538;53.626;9.906;2024-03-29T14:33:30;14.60;49.70
14893;DHT22;7538;53.626;9.906;2024-03-29T14:35:58;14.60;50.00
14893;DHT22;7538;53.626;9.906;2024-03-29T14:38:25;14.90;50.00
14893;DHT22;7538;53.626;9.906;2024-03-29T14:40:52;13.70;50.60
14893;DHT22;7538;53.626;9.906;2024-03-29T14:43:19;14.70;51.80
14893;DHT22;7538;53.626;9.906;2024-03-29T14:45:45;14.60;52.80
14893;DHT22;7538;53.626;9.906;2024-03-29T14:48:14;14.70;56.40
14893;DHT22;7538;53.626;9.906;2024-03-29T14:50:42;14.70;57.70
14893;DHT22;7538;53.626;9.906;2024-03-29T14:53:11;14.80;57.40
14893;DHT22;7538;53.626;9.906;2024-03-29T14:55:38;14.90;57.10
14893;DHT22;7538;53.626;9.906;2024-03-29T14:58:05;15.00;55.40
14893;DHT22;7538;53.626;9.906;2024-03-29T15:00:32;15.10;54.20
14893;DHT22;7538;53.626;9.906;2024-03-29T15:02:58;15.20;53.70
14893;DHT22;7538;53.626;9.906;2024-03-29T15:05:25;15.30;52.50
14893;DHT22;7538;53.626;9.906;2024-03-29T15:07:52;15.30;50.70
14893;DHT22;7538;53.626;9.906;2024-03-29T15:10:21;15.40;50.90
14893;DHT22;7538;53.626;9.906;2024-03-29T15:12:48;15.40;50.90
14893;DHT22;7538;53.626;9.906;2024-03-29T15:15:15;15.60;50.10
14893;DHT22;7538;53.626;9.906;2024-03-29T15:17:43;15.50;48.70
14893;DHT22;7538;53.626;9.906;2024-03-29T15:20:11;15.50;48.20
14893;DHT22;7538;53.626;9.906;2024-03-29T15:22:41;15.50;45.80
14893;DHT22;7538;53.626;9.906;2024-03-29T15:25:09;15.50;46.40
14893;DHT22;7538;53.626;9.906;2024-03-29T15:27:38;15.40;46.60
14893;DHT22;7538;53.626;9.906;2024-03-29T15:30:22;15.40;46.90
14893;DHT22;7538;53.626;9.906;2024-03-29T15:32:49;15.40;47.40
14893;DHT22;7538;53.626;9.906;2024-03-29T15:35:16;15.40;47.50
14893;DHT22;7538;53.626;9.906;2024-03-29T15:37:43;15.40;47.80
14893;DHT22;7538;53.626;9.906;2024-03-29T15:40:10;15.40;47.60
14893;DHT22;7538;53.626;9.906;2024-03-29T15:42:38;15.40;48.00
14893;DHT22;7538;53.626;9.906;2024-03-29T15:45:08;15.40;48.20
14893;DHT22;7538;53.626;9.906;2024-03-29T15:47:35;15.30;48.10
14893;DHT22;7538;53.626;9.906;2024-03-29T15:50:02;15.30;48.60
14893;DHT22;7538;53.626;9.906;2024-03-29T15:52:29;15.20;49.20
14893;DHT22;7538;53.626;9.906;2024-03-29T15:54:56;15.20;49.80